createdAt,value
2017-09-29T00:00:54.210Z,38.73
2017-09-29T00:03:20.459Z,40.30
2017-09-29T00:05:46.699Z,37.23
2017-09-29T00:08:13.850Z,41.60
2017-09-29T00:10:40.703Z,42.17
2017-09-29T00:13:06.954Z,42.20
2017-09-29T00:15:33.238Z,40.20
2017-09-29T00:17:59.679Z,42.20
2017-09-29T00:20:25.933Z,42.30
2017-09-29T00:22:52.294Z,40.40
2017-09-29T00:25:18.567Z,41.20
2017-09-29T00:27:44.843Z,39.10
2017-09-29T00:30:11.128Z,41.63
2017-09-29T00:32:37.366Z,42.73
2017-09-29T00:35:03.628Z,41.07
2017-09-29T00:37:29.878Z,41.73
2017-09-29T00:39:56.126Z,44.50
2017-09-29T00:42:22.362Z,41.43
2017-09-29T00:44:48.605Z,40.03
2017-09-29T00:47:14.821Z,42.87
2017-09-29T00:49:41.823Z,42.27
2017-09-29T00:52:08.094Z,41.70
2017-09-29T00:54:34.334Z,40.00
2017-09-29T00:57:00.594Z,43.20
2017-09-29T00:59:26.895Z,42.70
2017-09-29T01:01:53.142Z,41.67
2017-09-29T01:04:19.398Z,43.60
2017-09-29T01:06:45.683Z,43.50
2017-09-29T01:09:11.968Z,43.67
2017-09-29T01:11:45.194Z,41.30
2017-09-29T01:14:11.444Z,41.83
2017-09-29T01:16:37.921Z,41.77
2017-09-29T01:19:04.250Z,43.53
2017-09-29T01:21:30.520Z,43.10
2017-09-29T01:23:57.582Z,41.60
2017-09-29T01:26:23.814Z,42.63
2017-09-29T01:28:50.088Z,44.23
2017-09-29T01:31:16.347Z,43.80
2017-09-29T01:33:42.587Z,41.50
2017-09-29T01:36:09.958Z,44.37
2017-09-29T01:38:36.250Z,43.50
2017-09-29T01:41:02.549Z,41.57
2017-09-29T01:43:28.839Z,41.77
2017-09-29T01:45:55.334Z,44.70
2017-09-29T01:48:21.630Z,44.33
2017-09-29T01:50:47.874Z,44.20
2017-09-29T01:53:14.123Z,43.40
2017-09-29T01:55:40.346Z,41.87
2017-09-29T01:58:06.618Z,44.20
2017-09-29T02:00:32.977Z,43.23
2017-09-29T02:02:59.325Z,44.63
2017-09-29T02:05:26.414Z,45.20
2017-09-29T02:07:53.199Z,45.37
2017-09-29T02:10:19.478Z,43.83
2017-09-29T02:12:46.502Z,45.13
2017-09-29T02:15:12.776Z,43.70
2017-09-29T02:17:39.066Z,42.00
2017-09-29T02:20:05.329Z,42.20
2017-09-29T02:22:31.566Z,43.77
2017-09-29T02:24:58.238Z,43.60
2017-09-29T02:27:24.667Z,43.83
2017-09-29T02:29:50.906Z,41.27
2017-09-29T02:32:17.190Z,45.30
2017-09-29T02:34:46.515Z,41.40
2017-09-29T02:37:12.853Z,42.40
2017-09-29T02:39:39.123Z,43.10
2017-09-29T02:42:05.374Z,42.90
2017-09-29T02:44:31.606Z,41.83
2017-09-29T02:46:57.899Z,43.73
2017-09-29T02:49:24.211Z,43.17
2017-09-29T02:51:50.447Z,45.53
2017-09-29T02:54:16.678Z,43.37
2017-09-29T02:56:45.477Z,44.97
2017-09-29T02:59:12.659Z,44.47
2017-09-29T03:01:43.639Z,45.33
2017-09-29T03:04:12.088Z,42.20
2017-09-29T03:06:38.326Z,43.83
2017-09-29T03:09:04.554Z,42.33
2017-09-29T03:11:32.430Z,42.83
2017-09-29T03:13:58.670Z,44.53
2017-09-29T03:16:24.938Z,43.23
2017-09-29T03:18:51.230Z,41.60
2017-09-29T03:21:17.502Z,44.07
2017-09-29T03:23:43.730Z,41.60
2017-09-29T03:26:10.102Z,41.30
2017-09-29T03:28:36.343Z,45.30
2017-09-29T03:31:02.615Z,43.93
2017-09-29T03:33:28.958Z,45.00
2017-09-29T03:35:55.981Z,44.17
2017-09-29T03:38:22.262Z,41.50
2017-09-29T03:40:48.542Z,43.20
2017-09-29T03:43:14.804Z,41.80
2017-09-29T03:45:41.036Z,43.57
2017-09-29T03:48:07.314Z,41.30
2017-09-29T03:50:34.970Z,41.53
2017-09-29T03:53:02.309Z,43.07
2017-09-29T03:55:30.718Z,41.13
2017-09-29T03:57:57.704Z,43.87
2017-09-29T04:00:23.951Z,40.60
2017-09-29T04:02:50.229Z,42.50
2017-09-29T04:05:16.471Z,42.60
2017-09-29T04:07:43.666Z,43.10
2017-09-29T04:10:09.949Z,42.63
2017-09-29T04:12:36.174Z,41.50
2017-09-29T04:15:02.559Z,41.70
2017-09-29T04:17:29.201Z,44.00
2017-09-29T04:19:56.219Z,44.60
2017-09-29T04:22:22.646Z,40.40
2017-09-29T04:24:49.927Z,40.30
2017-09-29T04:27:16.250Z,41.70
2017-09-29T04:29:42.478Z,41.40
2017-09-29T04:32:08.867Z,43.03
2017-09-29T04:34:35.942Z,39.20
2017-09-29T04:37:02.169Z,42.70
2017-09-29T04:39:28.555Z,44.47
2017-09-29T04:41:54.802Z,41.63
2017-09-29T04:44:21.055Z,41.80
2017-09-29T04:46:48.038Z,43.80
2017-09-29T04:49:15.022Z,42.07
2017-09-29T04:51:41.254Z,41.57
2017-09-29T04:54:07.546Z,43.17
2017-09-29T04:56:33.781Z,43.17
2017-09-29T04:59:00.014Z,42.70
2017-09-29T05:01:26.362Z,43.93
2017-09-29T05:03:52.603Z,43.43
2017-09-29T05:06:18.843Z,45.90
2017-09-29T05:08:45.137Z,43.50
2017-09-29T05:11:11.367Z,42.83
2017-09-29T05:13:37.607Z,43.60
2017-09-29T05:16:03.863Z,45.90
2017-09-29T05:18:30.121Z,44.17
2017-09-29T05:20:57.102Z,45.30
2017-09-29T05:23:24.110Z,44.40
2017-09-29T05:25:51.090Z,46.97
2017-09-29T05:28:17.446Z,43.97
2017-09-29T05:30:43.723Z,41.47
2017-09-29T05:33:10.705Z,44.27
2017-09-29T05:35:36.955Z,46.70
2017-09-29T05:38:03.206Z,46.63
2017-09-29T05:40:29.473Z,46.73
2017-09-29T05:42:55.706Z,43.53
2017-09-29T05:45:21.990Z,45.90
2017-09-29T05:47:48.247Z,46.03
2017-09-29T05:50:15.263Z,45.00
2017-09-29T05:52:41.514Z,44.90
2017-09-29T05:55:07.818Z,47.07
2017-09-29T05:57:34.051Z,46.57
2017-09-29T06:00:00.303Z,49.33
2017-09-29T06:02:26.627Z,47.47
2017-09-29T06:04:52.878Z,46.70
2017-09-29T06:07:19.121Z,47.60
2017-09-29T06:09:45.366Z,45.53
2017-09-29T06:12:11.598Z,46.87
2017-09-29T06:14:37.871Z,44.67
2017-09-29T06:17:04.106Z,47.83
2017-09-29T06:19:30.335Z,46.97
2017-09-29T06:21:56.595Z,47.33
2017-09-29T06:24:22.831Z,47.30
2017-09-29T06:26:49.093Z,45.80
2017-09-29T06:29:15.457Z,47.30
2017-09-29T06:31:41.755Z,44.93
2017-09-29T06:34:07.991Z,45.53
2017-09-29T06:36:34.987Z,46.30
2017-09-29T06:39:01.302Z,46.40
2017-09-29T06:41:27.623Z,48.70
2017-09-29T06:43:53.880Z,42.67
2017-09-29T06:46:20.119Z,48.40
2017-09-29T06:48:46.370Z,45.13
2017-09-29T06:51:12.628Z,50.00
2017-09-29T06:53:45.803Z,48.87
2017-09-29T06:56:12.051Z,45.43
2017-09-29T06:58:39.074Z,47.50
2017-09-29T07:01:05.346Z,44.27
2017-09-29T07:03:31.594Z,46.67
2017-09-29T07:05:57.971Z,46.47
2017-09-29T07:08:24.245Z,45.90
2017-09-29T07:10:50.480Z,49.87
2017-09-29T07:13:16.826Z,51.93
2017-09-29T07:15:43.244Z,45.27
2017-09-29T07:18:09.495Z,48.40
2017-09-29T07:20:35.762Z,45.97
2017-09-29T07:23:02.066Z,47.50
2017-09-29T07:25:30.846Z,52.77
2017-09-29T07:28:01.599Z,51.23
2017-09-29T07:30:30.669Z,48.00
2017-09-29T07:32:56.938Z,48.97
2017-09-29T07:35:23.214Z,49.60
2017-09-29T07:37:49.453Z,55.00
2017-09-29T07:40:15.694Z,53.10
2017-09-29T07:42:41.978Z,51.30
2017-09-29T07:45:08.235Z,52.70
2017-09-29T07:47:35.260Z,49.20
2017-09-29T07:50:01.506Z,52.37
2017-09-29T07:52:27.740Z,49.73
2017-09-29T07:54:54.035Z,49.17
2017-09-29T07:57:20.311Z,50.57
2017-09-29T07:59:46.579Z,51.93
2017-09-29T08:02:12.815Z,53.47
2017-09-29T08:04:39.102Z,54.20
2017-09-29T08:07:05.381Z,49.33
2017-09-29T08:09:32.194Z,50.07
2017-09-29T08:11:58.497Z,51.10
2017-09-29T08:14:25.529Z,48.97
2017-09-29T08:16:51.786Z,48.60
2017-09-29T08:19:18.850Z,56.40
2017-09-29T08:21:45.111Z,53.03
2017-09-29T08:24:11.342Z,55.00
2017-09-29T08:26:37.583Z,54.10
2017-09-29T08:29:03.822Z,52.53
2017-09-29T08:31:31.161Z,62.93
2017-09-29T08:33:57.406Z,64.77
2017-09-29T08:36:23.639Z,57.27
2017-09-29T08:38:49.919Z,52.47
2017-09-29T08:41:17.582Z,52.87
2017-09-29T08:43:43.814Z,54.97
2017-09-29T08:46:10.046Z,53.03
2017-09-29T08:48:36.326Z,55.67
2017-09-29T08:51:02.558Z,54.50
2017-09-29T08:53:28.815Z,56.90
2017-09-29T08:55:55.091Z,54.90
2017-09-29T08:58:21.320Z,61.97
2017-09-29T09:00:47.549Z,61.47
2017-09-29T09:03:14.555Z,57.33
2017-09-29T09:05:40.786Z,56.40
2017-09-29T09:08:07.025Z,53.60
2017-09-29T09:10:33.292Z,58.60
2017-09-29T09:12:59.554Z,61.13
2017-09-29T09:15:25.824Z,71.43
2017-09-29T09:17:53.746Z,65.13
2017-09-29T09:20:19.994Z,61.67
2017-09-29T09:22:46.246Z,61.43
2017-09-29T09:25:12.534Z,58.90
2017-09-29T09:27:38.799Z,60.67
2017-09-29T09:30:05.066Z,64.80
2017-09-29T09:32:32.345Z,61.80
2017-09-29T09:34:58.587Z,63.90
2017-09-29T09:37:24.928Z,63.90
2017-09-29T09:39:52.166Z,62.20
2017-09-29T09:42:18.533Z,56.13
2017-09-29T09:44:44.959Z,53.43
2017-09-29T09:47:11.378Z,61.97
2017-09-29T09:49:37.662Z,61.87
2017-09-29T09:52:03.925Z,58.50
2017-09-29T09:54:30.935Z,62.90
2017-09-29T09:56:57.190Z,60.70
2017-09-29T09:59:24.168Z,61.03
2017-09-29T10:01:50.438Z,59.97
2017-09-29T10:04:22.175Z,57.40
2017-09-29T10:06:48.417Z,61.40
2017-09-29T10:09:15.794Z,57.10
2017-09-29T10:11:42.058Z,56.60
2017-09-29T10:14:08.414Z,54.57
2017-09-29T10:16:34.766Z,54.27
2017-09-29T10:19:01.073Z,62.57
2017-09-29T10:21:27.752Z,60.07
2017-09-29T10:23:54.155Z,62.67
2017-09-29T10:26:20.451Z,58.37
2017-09-29T10:28:46.773Z,61.67
2017-09-29T10:31:13.095Z,63.53
2017-09-29T10:33:39.548Z,59.77
2017-09-29T10:36:05.831Z,61.40
2017-09-29T10:38:38.915Z,59.73
2017-09-29T10:41:05.174Z,61.20
2017-09-29T10:43:31.431Z,59.33
2017-09-29T10:45:58.215Z,61.43
2017-09-29T10:48:24.463Z,55.07
2017-09-29T10:50:50.831Z,58.90
2017-09-29T10:53:17.094Z,53.93
2017-09-29T10:55:43.323Z,57.90
2017-09-29T10:58:09.645Z,60.70
2017-09-29T11:00:36.680Z,58.03
2017-09-29T11:03:02.922Z,57.47
2017-09-29T11:05:29.927Z,58.07
2017-09-29T11:07:56.214Z,56.23
2017-09-29T11:10:22.482Z,55.27
2017-09-29T11:12:48.715Z,59.27
2017-09-29T11:15:14.981Z,57.07
2017-09-29T11:17:41.867Z,55.83
2017-09-29T11:20:08.118Z,59.10
2017-09-29T11:22:35.316Z,54.70
2017-09-29T11:25:06.742Z,50.90
2017-09-29T11:27:33.018Z,55.90
2017-09-29T11:30:00.065Z,50.77
2017-09-29T11:32:26.306Z,54.00
2017-09-29T11:34:53.005Z,53.13
2017-09-29T11:37:19.278Z,50.50
2017-09-29T11:39:45.543Z,53.23
2017-09-29T11:42:11.806Z,50.30
2017-09-29T11:44:38.091Z,52.40
2017-09-29T11:47:04.349Z,54.07
2017-09-29T11:49:30.639Z,52.90
2017-09-29T11:51:57.663Z,51.37
2017-09-29T11:54:23.924Z,51.67
2017-09-29T11:56:50.184Z,51.40
2017-09-29T11:59:16.486Z,49.13
2017-09-29T12:01:43.487Z,51.23
2017-09-29T12:04:09.761Z,49.37
2017-09-29T12:06:36.095Z,46.03
2017-09-29T12:09:03.095Z,46.17
2017-09-29T12:11:29.422Z,47.97
2017-09-29T12:13:55.764Z,46.87
2017-09-29T12:16:22.023Z,48.17
2017-09-29T12:18:48.322Z,47.87
2017-09-29T12:21:15.158Z,47.33
2017-09-29T12:23:41.426Z,46.60
2017-09-29T12:26:07.691Z,47.10
2017-09-29T12:28:33.990Z,49.00
2017-09-29T12:31:00.246Z,49.53
2017-09-29T12:33:27.222Z,48.70
2017-09-29T12:35:53.610Z,46.93
2017-09-29T12:38:19.866Z,49.17
2017-09-29T12:40:46.108Z,48.37
2017-09-29T12:43:13.136Z,44.10
2017-09-29T12:45:39.426Z,45.90
2017-09-29T12:48:06.626Z,45.20
2017-09-29T12:50:33.669Z,45.20
2017-09-29T12:52:59.927Z,43.97
2017-09-29T12:55:26.182Z,42.90
2017-09-29T12:57:52.483Z,41.60
2017-09-29T13:00:18.738Z,49.17
2017-09-29T13:02:44.986Z,46.23
2017-09-29T13:05:11.293Z,44.93
2017-09-29T13:07:37.569Z,47.33
2017-09-29T13:10:04.583Z,41.30
2017-09-29T13:12:30.844Z,43.00
2017-09-29T13:14:57.078Z,44.00
2017-09-29T13:17:23.471Z,43.33
2017-09-29T13:19:50.855Z,44.53
2017-09-29T13:22:21.166Z,42.33
2017-09-29T13:24:47.414Z,44.47
2017-09-29T13:27:13.645Z,43.70
2017-09-29T13:29:39.870Z,42.80
2017-09-29T13:32:06.138Z,44.53
2017-09-29T13:34:33.458Z,46.00
2017-09-29T13:36:59.791Z,44.27
2017-09-29T13:39:26.023Z,43.33
2017-09-29T13:41:52.314Z,43.50
2017-09-29T13:44:19.290Z,45.03
2017-09-29T13:46:45.542Z,47.50
2017-09-29T13:49:11.818Z,45.63
2017-09-29T13:51:38.055Z,43.50
2017-09-29T13:54:04.506Z,44.60
2017-09-29T13:56:30.794Z,42.70
2017-09-29T13:58:57.045Z,47.10
2017-09-29T14:01:23.284Z,45.43
2017-09-29T14:03:49.566Z,44.90
2017-09-29T14:06:15.822Z,45.63
2017-09-29T14:08:42.091Z,46.27
2017-09-29T14:11:09.123Z,46.67
2017-09-29T14:13:35.402Z,45.37
2017-09-29T14:16:01.734Z,46.23
2017-09-29T14:18:28.045Z,46.63
2017-09-29T14:20:54.282Z,47.97
2017-09-29T14:23:20.522Z,42.27
2017-09-29T14:25:46.809Z,45.30
2017-09-29T14:28:13.050Z,44.67
2017-09-29T14:30:39.297Z,43.67
2017-09-29T14:33:05.550Z,43.00
2017-09-29T14:35:31.791Z,44.17
2017-09-29T14:37:58.142Z,43.93
2017-09-29T14:40:24.420Z,40.30
2017-09-29T14:42:50.662Z,43.90
2017-09-29T14:45:16.898Z,42.87
2017-09-29T14:47:43.171Z,44.27
2017-09-29T14:50:09.407Z,41.60
2017-09-29T14:52:35.638Z,46.77
2017-09-29T14:55:02.049Z,44.33
2017-09-29T14:57:28.275Z,41.57
2017-09-29T14:59:54.506Z,42.80
2017-09-29T15:02:20.759Z,41.83
2017-09-29T15:04:47.006Z,42.17
2017-09-29T15:07:13.250Z,38.73
2017-09-29T15:09:39.499Z,44.70
2017-09-29T15:12:05.742Z,42.47
2017-09-29T15:14:32.034Z,43.17
2017-09-29T15:16:58.301Z,40.77
2017-09-29T15:19:24.534Z,42.20
2017-09-29T15:21:50.773Z,43.97
2017-09-29T15:24:17.057Z,41.60
2017-09-29T15:26:44.039Z,41.57
2017-09-29T15:29:10.286Z,41.50
2017-09-29T15:31:36.796Z,39.80
2017-09-29T15:34:03.083Z,41.30
2017-09-29T15:36:29.373Z,40.20
2017-09-29T15:38:55.811Z,42.63
2017-09-29T15:41:22.047Z,42.07
2017-09-29T15:43:48.275Z,42.80
2017-09-29T15:46:14.534Z,43.80
2017-09-29T15:48:40.766Z,43.03
2017-09-29T15:51:07.017Z,43.40
2017-09-29T15:53:33.294Z,41.70
2017-09-29T15:55:59.532Z,41.40
2017-09-29T15:58:25.762Z,41.47
2017-09-29T16:00:52.043Z,41.03
2017-09-29T16:03:18.318Z,41.43
2017-09-29T16:05:44.563Z,40.60
2017-09-29T16:08:10.826Z,42.60
2017-09-29T16:10:37.104Z,39.43
2017-09-29T16:13:03.347Z,41.27
2017-09-29T16:15:30.334Z,39.30
2017-09-29T16:17:56.620Z,41.83
2017-09-29T16:20:22.898Z,39.27
2017-09-29T16:22:49.178Z,40.90
2017-09-29T16:25:15.424Z,39.23
2017-09-29T16:27:41.658Z,40.80
2017-09-29T16:30:07.949Z,43.00
2017-09-29T16:32:34.192Z,43.20
2017-09-29T16:35:00.440Z,42.70
2017-09-29T16:37:26.707Z,42.40
2017-09-29T16:39:53.025Z,43.43
2017-09-29T16:42:19.305Z,42.93
2017-09-29T16:44:45.606Z,40.40
2017-09-29T16:47:11.851Z,45.47
2017-09-29T16:49:38.098Z,41.90
2017-09-29T16:52:04.506Z,45.40
2017-09-29T16:54:30.746Z,42.77
2017-09-29T16:56:56.999Z,44.83
2017-09-29T16:59:23.266Z,43.23
2017-09-29T17:01:49.534Z,46.37
2017-09-29T17:04:15.769Z,45.47
2017-09-29T17:06:42.042Z,42.83
2017-09-29T17:09:09.009Z,46.10
2017-09-29T17:11:35.982Z,44.40
2017-09-29T17:14:02.979Z,42.83
2017-09-29T17:16:29.236Z,48.83
2017-09-29T17:18:55.503Z,48.03
2017-09-29T17:21:21.754Z,45.43
2017-09-29T17:23:48.005Z,46.53
2017-09-29T17:26:14.275Z,43.73
2017-09-29T17:28:44.740Z,44.80
2017-09-29T17:31:11.063Z,43.80
2017-09-29T17:33:37.298Z,44.30
2017-09-29T17:36:04.566Z,44.77
2017-09-29T17:38:30.838Z,46.07
2017-09-29T17:40:58.266Z,43.60
2017-09-29T17:43:24.550Z,43.43
2017-09-29T17:45:50.787Z,42.30
2017-09-29T17:48:17.832Z,46.10
2017-09-29T17:50:44.164Z,43.17
2017-09-29T17:53:10.443Z,43.00
2017-09-29T17:55:36.698Z,42.60
2017-09-29T17:58:03.709Z,44.60
2017-09-29T18:00:29.982Z,42.40
2017-09-29T18:02:56.962Z,40.70
2017-09-29T18:05:23.212Z,42.40
2017-09-29T18:07:49.477Z,43.10
2017-09-29T18:10:16.466Z,41.43
2017-09-29T18:12:42.810Z,42.30
2017-09-29T18:15:09.113Z,38.93
2017-09-29T18:17:36.162Z,39.57
2017-09-29T18:20:02.614Z,39.13
2017-09-29T18:22:28.907Z,40.90
2017-09-29T18:24:55.981Z,38.17
2017-09-29T18:29:55.465Z,41.40
2017-09-29T18:32:21.824Z,39.87
2017-09-29T18:34:48.439Z,37.80
2017-09-29T18:37:14.748Z,37.67
2017-09-29T18:39:41.981Z,40.40
2017-09-29T18:42:08.477Z,36.10
2017-09-29T18:44:36.842Z,37.50
2017-09-29T18:47:05.076Z,36.80
2017-09-29T18:49:31.473Z,37.73
2017-09-29T18:51:58.525Z,38.03
2017-09-29T18:54:25.904Z,35.97
2017-09-29T18:56:52.265Z,33.60
2017-09-29T18:59:18.716Z,32.73
2017-09-29T19:01:45.276Z,35.40
2017-09-29T19:04:11.665Z,33.73
2017-09-29T19:06:38.115Z,34.03
2017-09-29T19:09:04.531Z,31.87
2017-09-29T19:11:31.014Z,33.40
2017-09-29T19:13:57.472Z,34.40
2017-09-29T19:16:24.182Z,32.00
2017-09-29T19:18:50.522Z,34.00
2017-09-29T19:21:16.880Z,34.00
2017-09-29T19:23:43.966Z,33.20
2017-09-29T19:26:10.571Z,33.90
2017-09-29T19:28:36.954Z,34.57
2017-09-29T19:31:18.238Z,36.30
2017-09-29T19:33:45.499Z,34.33
2017-09-29T19:36:11.912Z,35.33
2017-09-29T19:38:38.241Z,34.60
2017-09-29T19:41:05.696Z,33.20
2017-09-29T19:43:33.115Z,34.27
2017-09-29T19:45:59.643Z,32.40
2017-09-29T19:48:25.998Z,34.10
2017-09-29T19:50:52.373Z,33.40
2017-09-29T19:53:18.721Z,32.60
2017-09-29T19:55:45.316Z,34.50
2017-09-29T19:58:11.669Z,32.07
2017-09-29T20:00:38.054Z,33.77
2017-09-29T20:03:04.709Z,34.07
2017-09-29T20:05:32.328Z,30.77
2017-09-29T20:07:58.878Z,31.87
2017-09-29T20:10:25.353Z,30.13
2017-09-29T20:12:51.646Z,29.57
2017-09-29T20:15:18.006Z,29.27
2017-09-29T20:17:44.315Z,28.60
2017-09-29T20:20:10.562Z,29.80
2017-09-29T20:22:37.111Z,28.07
2017-09-29T20:25:03.799Z,30.00
2017-09-29T20:27:30.218Z,29.67
2017-09-29T20:29:56.783Z,32.07
2017-09-29T20:32:23.843Z,28.07
2017-09-29T20:34:50.075Z,26.40
2017-09-29T20:37:18.003Z,26.07
2017-09-29T20:39:46.791Z,26.47
2017-09-29T20:42:16.232Z,26.67
2017-09-29T20:44:43.368Z,31.20
2017-09-29T20:47:10.322Z,26.30
2017-09-29T20:49:36.731Z,27.40
2017-09-29T20:52:03.804Z,26.37
2017-09-29T20:54:30.198Z,22.27
2017-09-29T20:56:56.578Z,24.60
2017-09-29T20:59:22.904Z,25.43
2017-09-29T21:01:49.899Z,24.83
2017-09-29T21:04:16.455Z,26.90
2017-09-29T21:06:42.722Z,26.40
2017-09-29T21:09:08.976Z,25.30
2017-09-29T21:11:35.230Z,24.83
2017-09-29T21:14:01.487Z,27.40
2017-09-29T21:16:27.723Z,24.80
2017-09-29T21:18:54.698Z,24.30
2017-09-29T21:21:20.966Z,22.70
2017-09-29T21:23:47.274Z,23.30
2017-09-29T21:26:13.506Z,23.60
2017-09-29T21:28:39.773Z,24.80
2017-09-29T21:31:06.039Z,24.73
2017-09-29T21:33:32.342Z,25.60
2017-09-29T21:35:58.598Z,25.97
2017-09-29T21:38:25.566Z,24.10
2017-09-29T21:40:51.817Z,24.23
2017-09-29T21:43:18.070Z,23.23
2017-09-29T21:45:44.394Z,24.27
2017-09-29T21:48:10.634Z,23.33
2017-09-29T21:50:37.062Z,22.30
2017-09-29T21:53:03.292Z,21.93
2017-09-29T21:55:30.382Z,23.57
2017-09-29T21:57:56.735Z,22.00
2017-09-29T22:00:23.718Z,24.90
2017-09-29T22:02:49.998Z,23.77
2017-09-29T22:05:20.306Z,22.60
2017-09-29T22:07:46.542Z,22.93
2017-09-29T22:10:12.774Z,22.67
2017-09-29T22:12:39.043Z,23.07
2017-09-29T22:15:05.382Z,22.07
2017-09-29T22:17:33.406Z,22.70
2017-09-29T22:20:00.502Z,23.23
2017-09-29T22:22:26.758Z,22.37
2017-09-29T22:24:52.999Z,24.50
2017-09-29T22:27:19.418Z,25.20
2017-09-29T22:29:45.643Z,25.10
2017-09-29T22:32:11.878Z,22.00
2017-09-29T22:34:38.196Z,22.60
2017-09-29T22:37:04.434Z,25.40
2017-09-29T22:39:31.423Z,24.00
2017-09-29T22:41:57.768Z,22.83
2017-09-29T22:44:24.022Z,23.10
2017-09-29T22:46:51.074Z,22.47
2017-09-29T22:49:18.091Z,23.33
2017-09-29T22:51:44.311Z,21.73
2017-09-29T22:54:10.578Z,25.23
2017-09-29T22:56:36.866Z,21.27
2017-09-29T22:59:03.117Z,25.03
2017-09-29T23:01:29.377Z,22.80
2017-09-29T23:03:55.634Z,22.63
2017-09-29T23:06:21.887Z,23.80
2017-09-29T23:08:48.121Z,22.50
2017-09-29T23:11:14.390Z,24.40
2017-09-29T23:13:40.627Z,23.80
2017-09-29T23:16:07.657Z,22.70
2017-09-29T23:18:33.934Z,24.03
2017-09-29T23:21:00.160Z,22.50
2017-09-29T23:23:26.391Z,22.97
2017-09-29T23:25:52.650Z,24.70
2017-09-29T23:28:18.885Z,24.20
2017-09-29T23:30:45.122Z,23.00
2017-09-29T23:33:11.378Z,22.40
2017-09-29T23:35:37.630Z,22.83
2017-09-29T23:38:04.599Z,22.03
2017-09-29T23:40:30.839Z,24.23
2017-09-29T23:42:57.089Z,24.20
2017-09-29T23:45:23.333Z,24.00
2017-09-29T23:47:49.829Z,24.73
2017-09-29T23:50:16.067Z,23.47
2017-09-29T23:52:42.303Z,22.73
2017-09-29T23:55:08.553Z,23.40
2017-09-29T23:57:34.782Z,24.57
